sensor_id;sensor_type;location;lat;lon;timestamp;P1;durP1;ratioP1;P2;durP2;ratioP2
16242;SDS011;11719;51.052;6.982;2023-05-10T00:00:39;1.73;;;0.90;;
16242;SDS011;11719;51.052;6.982;2023-05-10T00:03:05;2.83;;;1.53;;
16242;SDS011;11719;51.052;6.982;2023-05-10T00:05:31;2.87;;;1.00;;
16242;SDS011;11719;51.052;6.982;2023-05-10T00:07:57;3.57;;;1.47;;
16242;SDS011;11719;51.052;6.982;2023-05-10T00:10:23;2.33;;;1.20;;
16242;SDS011;11719;51.052;6.982;2023-05-10T00:12:49;2.47;;;1.00;;
16242;SDS011;11719;51.052;6.982;2023-05-10T00:15:14;3.00;;;1.43;;
16242;SDS011;11719;51.052;6.982;2023-05-10T00:17:40;2.80;;;1.50;;
16242;SDS011;11719;51.052;6.982;2023-05-10T00:20:06;2.83;;;1.40;;
16242;SDS011;11719;51.052;6.982;2023-05-10T00:22:32;1.10;;;0.80;;
16242;SDS011;11719;51.052;6.982;2023-05-10T00:24:58;2.97;;;2.10;;
16242;SDS011;11719;51.052;6.982;2023-05-10T00:27:24;2.63;;;1.67;;
16242;SDS011;11719;51.052;6.982;2023-05-10T00:29:50;3.47;;;1.87;;
16242;SDS011;11719;51.052;6.982;2023-05-10T00:32:16;4.30;;;2.00;;
16242;SDS011;11719;51.052;6.982;2023-05-10T00:34:41;2.67;;;1.50;;
16242;SDS011;11719;51.052;6.982;2023-05-10T00:37:10;3.27;;;1.53;;
16242;SDS011;11719;51.052;6.982;2023-05-10T00:39:36;4.67;;;2.37;;
16242;SDS011;11719;51.052;6.982;2023-05-10T00:42:01;2.27;;;1.27;;
16242;SDS011;11719;51.052;6.982;2023-05-10T00:44:29;2.10;;;1.50;;
16242;SDS011;11719;51.052;6.982;2023-05-10T00:46:56;3.07;;;1.80;;
16242;SDS011;11719;51.052;6.982;2023-05-10T00:49:22;3.27;;;1.50;;
16242;SDS011;11719;51.052;6.982;2023-05-10T00:51:48;3.03;;;1.60;;
16242;SDS011;11719;51.052;6.982;2023-05-10T00:54:17;2.50;;;1.47;;
16242;SDS011;11719;51.052;6.982;2023-05-10T00:56:42;3.27;;;1.63;;
16242;SDS011;11719;51.052;6.982;2023-05-10T00:59:14;3.53;;;1.93;;
16242;SDS011;11719;51.052;6.982;2023-05-10T01:01:44;3.10;;;1.90;;
16242;SDS011;11719;51.052;6.982;2023-05-10T01:04:12;4.73;;;2.30;;
16242;SDS011;11719;51.052;6.982;2023-05-10T01:06:39;2.07;;;1.73;;
16242;SDS011;11719;51.052;6.982;2023-05-10T01:09:06;3.87;;;2.00;;
16242;SDS011;11719;51.052;6.982;2023-05-10T01:11:35;4.53;;;2.20;;
16242;SDS011;11719;51.052;6.982;2023-05-10T01:14:03;5.50;;;1.57;;
16242;SDS011;11719;51.052;6.982;2023-05-10T01:16:31;1.90;;;1.23;;
16242;SDS011;11719;51.052;6.982;2023-05-10T01:19:05;3.37;;;1.87;;
16242;SDS011;11719;51.052;6.982;2023-05-10T01:22:14;2.07;;;1.00;;
16242;SDS011;11719;51.052;6.982;2023-05-10T01:36:50;2.90;;;1.80;;
16242;SDS011;11719;51.052;6.982;2023-05-10T01:39:22;4.57;;;2.20;;
16242;SDS011;11719;51.052;6.982;2023-05-10T01:42:10;2.77;;;1.43;;
16242;SDS011;11719;51.052;6.982;2023-05-10T01:44:42;2.53;;;1.43;;
16242;SDS011;11719;51.052;6.982;2023-05-10T01:47:26;3.40;;;1.63;;
16242;SDS011;11719;51.052;6.982;2023-05-10T01:50:04;3.00;;;1.50;;
16242;SDS011;11719;51.052;6.982;2023-05-10T01:52:41;2.67;;;1.40;;
16242;SDS011;11719;51.052;6.982;2023-05-10T01:55:11;2.30;;;1.47;;
16242;SDS011;11719;51.052;6.982;2023-05-10T01:57:40;3.47;;;1.37;;
16242;SDS011;11719;51.052;6.982;2023-05-10T02:00:09;2.43;;;1.40;;
16242;SDS011;11719;51.052;6.982;2023-05-10T02:02:37;2.27;;;1.23;;
16242;SDS011;11719;51.052;6.982;2023-05-10T02:05:07;1.93;;;1.40;;
16242;SDS011;11719;51.052;6.982;2023-05-10T02:07:35;4.43;;;1.53;;
16242;SDS011;11719;51.052;6.982;2023-05-10T02:10:05;1.60;;;1.03;;
16242;SDS011;11719;51.052;6.982;2023-05-10T02:12:35;1.13;;;0.90;;
16242;SDS011;11719;51.052;6.982;2023-05-10T02:15:08;1.73;;;1.03;;
16242;SDS011;11719;51.052;6.982;2023-05-10T02:17:38;2.20;;;1.07;;
16242;SDS011;11719;51.052;6.982;2023-05-10T02:20:05;1.90;;;1.10;;
16242;SDS011;11719;51.052;6.982;2023-05-10T02:22:32;2.43;;;1.20;;
16242;SDS011;11719;51.052;6.982;2023-05-10T02:25:00;1.33;;;1.03;;
16242;SDS011;11719;51.052;6.982;2023-05-10T02:27:28;1.23;;;0.87;;
16242;SDS011;11719;51.052;6.982;2023-05-10T02:29:55;1.53;;;1.00;;
16242;SDS011;11719;51.052;6.982;2023-05-10T02:32:24;1.47;;;0.77;;
16242;SDS011;11719;51.052;6.982;2023-05-10T02:34:51;1.10;;;0.73;;
16242;SDS011;11719;51.052;6.982;2023-05-10T02:37:21;1.20;;;1.00;;
16242;SDS011;11719;51.052;6.982;2023-05-10T02:39:48;5.27;;;1.27;;
16242;SDS011;11719;51.052;6.982;2023-05-10T02:42:16;1.90;;;0.90;;
16242;SDS011;11719;51.052;6.982;2023-05-10T02:44:45;1.53;;;0.80;;
16242;SDS011;11719;51.052;6.982;2023-05-10T02:47:14;1.57;;;0.80;;
16242;SDS011;11719;51.052;6.982;2023-05-10T02:49:40;1.77;;;0.83;;
16242;SDS011;11719;51.052;6.982;2023-05-10T02:52:06;2.33;;;1.00;;
16242;SDS011;11719;51.052;6.982;2023-05-10T02:54:36;2.20;;;1.07;;
16242;SDS011;11719;51.052;6.982;2023-05-10T02:57:11;2.23;;;1.27;;
16242;SDS011;11719;51.052;6.982;2023-05-10T02:59:45;1.57;;;1.00;;
16242;SDS011;11719;51.052;6.982;2023-05-10T03:02:14;1.33;;;0.80;;
16242;SDS011;11719;51.052;6.982;2023-05-10T03:04:39;1.93;;;0.93;;
16242;SDS011;11719;51.052;6.982;2023-05-10T03:07:05;1.97;;;0.83;;
16242;SDS011;11719;51.052;6.982;2023-05-10T03:09:32;1.63;;;1.00;;
16242;SDS011;11719;51.052;6.982;2023-05-10T03:12:07;1.97;;;0.90;;
16242;SDS011;11719;51.052;6.982;2023-05-10T03:15:12;3.17;;;1.20;;
16242;SDS011;11719;51.052;6.982;2023-05-10T03:23:13;1.53;;;1.00;;
16242;SDS011;11719;51.052;6.982;2023-05-10T03:25:55;0.87;;;0.63;;
16242;SDS011;11719;51.052;6.982;2023-05-10T03:28:22;1.53;;;0.90;;
16242;SDS011;11719;51.052;6.982;2023-05-10T03:30:52;2.37;;;1.03;;
16242;SDS011;11719;51.052;6.982;2023-05-10T03:33:19;1.63;;;1.10;;
16242;SDS011;11719;51.052;6.982;2023-05-10T03:35:45;2.07;;;1.10;;
16242;SDS011;11719;51.052;6.982;2023-05-10T03:38:11;2.70;;;1.03;;
16242;SDS011;11719;51.052;6.982;2023-05-10T03:40:38;2.57;;;1.40;;
16242;SDS011;11719;51.052;6.982;2023-05-10T03:43:04;2.23;;;1.07;;
16242;SDS011;11719;51.052;6.982;2023-05-10T03:45:29;1.60;;;0.93;;
16242;SDS011;11719;51.052;6.982;2023-05-10T03:47:56;2.07;;;1.10;;
16242;SDS011;11719;51.052;6.982;2023-05-10T03:50:23;1.77;;;1.00;;
16242;SDS011;11719;51.052;6.982;2023-05-10T03:52:49;1.70;;;1.10;;
16242;SDS011;11719;51.052;6.982;2023-05-10T03:55:15;2.97;;;1.53;;
16242;SDS011;11719;51.052;6.982;2023-05-10T03:57:41;3.63;;;1.60;;
16242;SDS011;11719;51.052;6.982;2023-05-10T04:00:07;3.17;;;1.30;;
16242;SDS011;11719;51.052;6.982;2023-05-10T04:02:34;3.13;;;1.00;;
16242;SDS011;11719;51.052;6.982;2023-05-10T04:05:00;6.03;;;2.13;;
16242;SDS011;11719;51.052;6.982;2023-05-10T04:07:26;3.63;;;1.50;;
16242;SDS011;11719;51.052;6.982;2023-05-10T04:09:52;3.17;;;1.97;;
16242;SDS011;11719;51.052;6.982;2023-05-10T04:12:18;2.10;;;1.60;;
16242;SDS011;11719;51.052;6.982;2023-05-10T04:14:43;3.20;;;1.93;;
16242;SDS011;11719;51.052;6.982;2023-05-10T04:17:09;4.10;;;1.97;;
16242;SDS011;11719;51.052;6.982;2023-05-10T04:19:35;3.37;;;1.50;;
16242;SDS011;11719;51.052;6.982;2023-05-10T04:22:01;2.90;;;1.30;;
16242;SDS011;11719;51.052;6.982;2023-05-10T04:24:28;2.50;;;1.50;;
16242;SDS011;11719;51.052;6.982;2023-05-10T04:26:54;2.87;;;1.53;;
16242;SDS011;11719;51.052;6.982;2023-05-10T04:29:20;4.17;;;1.83;;
16242;SDS011;11719;51.052;6.982;2023-05-10T04:31:46;4.80;;;2.23;;
16242;SDS011;11719;51.052;6.982;2023-05-10T04:34:11;3.53;;;1.63;;
16242;SDS011;11719;51.052;6.982;2023-05-10T04:36:37;3.17;;;1.93;;
16242;SDS011;11719;51.052;6.982;2023-05-10T04:39:03;3.13;;;2.03;;
16242;SDS011;11719;51.052;6.982;2023-05-10T04:41:29;3.13;;;2.20;;
16242;SDS011;11719;51.052;6.982;2023-05-10T04:43:55;4.23;;;1.97;;
16242;SDS011;11719;51.052;6.982;2023-05-10T04:46:21;4.30;;;2.20;;
16242;SDS011;11719;51.052;6.982;2023-05-10T04:48:47;5.47;;;2.70;;
16242;SDS011;11719;51.052;6.982;2023-05-10T04:51:13;4.87;;;2.30;;
16242;SDS011;11719;51.052;6.982;2023-05-10T04:53:38;4.30;;;2.40;;
16242;SDS011;11719;51.052;6.982;2023-05-10T04:56:04;6.10;;;2.90;;
16242;SDS011;11719;51.052;6.982;2023-05-10T04:58:30;5.07;;;2.57;;
16242;SDS011;11719;51.052;6.982;2023-05-10T05:00:56;6.13;;;2.23;;
16242;SDS011;11719;51.052;6.982;2023-05-10T05:03:22;3.20;;;2.03;;
16242;SDS011;11719;51.052;6.982;2023-05-10T05:05:48;5.30;;;2.27;;
16242;SDS011;11719;51.052;6.982;2023-05-10T05:08:13;4.33;;;2.60;;
16242;SDS011;11719;51.052;6.982;2023-05-10T05:10:39;3.97;;;2.37;;
16242;SDS011;11719;51.052;6.982;2023-05-10T05:13:05;3.63;;;2.30;;
16242;SDS011;11719;51.052;6.982;2023-05-10T05:15:31;5.87;;;2.57;;
16242;SDS011;11719;51.052;6.982;2023-05-10T05:17:57;4.77;;;2.50;;
16242;SDS011;11719;51.052;6.982;2023-05-10T05:20:22;4.10;;;2.50;;
16242;SDS011;11719;51.052;6.982;2023-05-10T05:22:48;3.37;;;2.27;;
16242;SDS011;11719;51.052;6.982;2023-05-10T05:25:14;4.37;;;2.40;;
16242;SDS011;11719;51.052;6.982;2023-05-10T05:27:40;4.83;;;2.63;;
16242;SDS011;11719;51.052;6.982;2023-05-10T05:30:06;5.43;;;2.20;;
16242;SDS011;11719;51.052;6.982;2023-05-10T05:32:33;4.50;;;2.60;;
16242;SDS011;11719;51.052;6.982;2023-05-10T05:34:58;4.17;;;2.03;;
16242;SDS011;11719;51.052;6.982;2023-05-10T05:37:24;3.77;;;2.43;;
16242;SDS011;11719;51.052;6.982;2023-05-10T05:39:50;3.60;;;2.27;;
16242;SDS011;11719;51.052;6.982;2023-05-10T05:42:16;3.23;;;1.87;;
16242;SDS011;11719;51.052;6.982;2023-05-10T05:44:43;3.47;;;2.10;;
16242;SDS011;11719;51.052;6.982;2023-05-10T05:47:09;3.20;;;1.90;;
16242;SDS011;11719;51.052;6.982;2023-05-10T05:49:35;3.33;;;1.97;;
16242;SDS011;11719;51.052;6.982;2023-05-10T05:52:01;4.87;;;2.20;;
16242;SDS011;11719;51.052;6.982;2023-05-10T05:54:28;4.77;;;2.30;;
16242;SDS011;11719;51.052;6.982;2023-05-10T05:56:58;5.23;;;2.20;;
16242;SDS011;11719;51.052;6.982;2023-05-10T05:59:25;6.33;;;2.27;;
16242;SDS011;11719;51.052;6.982;2023-05-10T06:01:51;5.23;;;2.00;;
16242;SDS011;11719;51.052;6.982;2023-05-10T06:04:17;3.37;;;2.10;;
16242;SDS011;11719;51.052;6.982;2023-05-10T06:06:43;8.33;;;2.30;;
16242;SDS011;11719;51.052;6.982;2023-05-10T06:09:09;5.23;;;2.00;;
16242;SDS011;11719;51.052;6.982;2023-05-10T06:11:35;5.53;;;2.60;;
16242;SDS011;11719;51.052;6.982;2023-05-10T06:14:01;6.37;;;2.80;;
16242;SDS011;11719;51.052;6.982;2023-05-10T06:16:34;8.37;;;2.60;;
16242;SDS011;11719;51.052;6.982;2023-05-10T06:19:00;6.97;;;2.60;;
16242;SDS011;11719;51.052;6.982;2023-05-10T06:21:26;4.30;;;2.03;;
16242;SDS011;11719;51.052;6.982;2023-05-10T06:23:52;5.57;;;2.60;;
16242;SDS011;11719;51.052;6.982;2023-05-10T06:26:17;6.47;;;2.83;;
16242;SDS011;11719;51.052;6.982;2023-05-10T06:28:43;4.43;;;2.23;;
16242;SDS011;11719;51.052;6.982;2023-05-10T06:31:09;5.40;;;2.40;;
16242;SDS011;11719;51.052;6.982;2023-05-10T06:33:36;3.77;;;1.50;;
16242;SDS011;11719;51.052;6.982;2023-05-10T06:36:02;5.50;;;2.87;;
16242;SDS011;11719;51.052;6.982;2023-05-10T06:38:28;6.43;;;2.13;;
16242;SDS011;11719;51.052;6.982;2023-05-10T06:40:54;5.47;;;2.80;;
16242;SDS011;11719;51.052;6.982;2023-05-10T06:43:20;4.77;;;2.60;;
16242;SDS011;11719;51.052;6.982;2023-05-10T06:45:47;4.17;;;2.43;;
16242;SDS011;11719;51.052;6.982;2023-05-10T06:48:13;4.10;;;1.93;;
16242;SDS011;11719;51.052;6.982;2023-05-10T06:50:39;5.40;;;2.67;;
16242;SDS011;11719;51.052;6.982;2023-05-10T06:53:04;5.03;;;2.43;;
16242;SDS011;11719;51.052;6.982;2023-05-10T06:55:30;3.83;;;2.50;;
16242;SDS011;11719;51.052;6.982;2023-05-10T06:57:56;3.67;;;2.23;;
16242;SDS011;11719;51.052;6.982;2023-05-10T07:00:22;4.73;;;1.87;;
16242;SDS011;11719;51.052;6.982;2023-05-10T07:02:48;5.10;;;2.47;;
16242;SDS011;11719;51.052;6.982;2023-05-10T07:05:13;4.90;;;2.67;;
16242;SDS011;11719;51.052;6.982;2023-05-10T07:07:40;4.37;;;2.60;;
16242;SDS011;11719;51.052;6.982;2023-05-10T07:10:06;6.50;;;2.50;;
16242;SDS011;11719;51.052;6.982;2023-05-10T07:12:32;7.53;;;3.33;;
16242;SDS011;11719;51.052;6.982;2023-05-10T07:14:58;6.23;;;2.93;;
16242;SDS011;11719;51.052;6.982;2023-05-10T07:17:24;7.57;;;2.10;;
16242;SDS011;11719;51.052;6.982;2023-05-10T07:19:50;5.80;;;2.30;;
16242;SDS011;11719;51.052;6.982;2023-05-10T07:22:16;6.17;;;2.50;;
16242;SDS011;11719;51.052;6.982;2023-05-10T07:24:42;6.00;;;2.97;;
16242;SDS011;11719;51.052;6.982;2023-05-10T07:27:08;4.13;;;2.50;;
16242;SDS011;11719;51.052;6.982;2023-05-10T07:29:34;8.47;;;2.80;;
16242;SDS011;11719;51.052;6.982;2023-05-10T07:32:02;8.20;;;2.57;;
16242;SDS011;11719;51.052;6.982;2023-05-10T07:34:28;6.10;;;2.73;;
16242;SDS011;11719;51.052;6.982;2023-05-10T07:36:55;7.90;;;3.00;;
16242;SDS011;11719;51.052;6.982;2023-05-10T07:39:23;6.90;;;2.47;;
16242;SDS011;11719;51.052;6.982;2023-05-10T07:41:48;8.53;;;3.10;;
16242;SDS011;11719;51.052;6.982;2023-05-10T07:44:14;4.77;;;1.93;;
16242;SDS011;11719;51.052;6.982;2023-05-10T07:46:43;5.77;;;3.20;;
16242;SDS011;11719;51.052;6.982;2023-05-10T07:49:08;6.83;;;3.40;;
16242;SDS011;11719;51.052;6.982;2023-05-10T07:51:34;5.27;;;2.10;;
16242;SDS011;11719;51.052;6.982;2023-05-10T07:54:00;6.90;;;2.30;;
16242;SDS011;11719;51.052;6.982;2023-05-10T07:56:28;8.37;;;1.93;;
16242;SDS011;11719;51.052;6.982;2023-05-10T07:58:57;5.47;;;2.43;;
16242;SDS011;11719;51.052;6.982;2023-05-10T08:01:24;4.33;;;2.00;;
16242;SDS011;11719;51.052;6.982;2023-05-10T08:03:51;4.00;;;1.97;;
16242;SDS011;11719;51.052;6.982;2023-05-10T08:06:18;6.17;;;2.80;;
16242;SDS011;11719;51.052;6.982;2023-05-10T08:08:46;5.87;;;2.60;;
16242;SDS011;11719;51.052;6.982;2023-05-10T08:11:17;4.50;;;2.47;;
16242;SDS011;11719;51.052;6.982;2023-05-10T08:13:43;6.13;;;2.53;;
16242;SDS011;11719;51.052;6.982;2023-05-10T08:16:10;4.53;;;2.83;;
16242;SDS011;11719;51.052;6.982;2023-05-10T08:18:36;5.93;;;2.30;;
16242;SDS011;11719;51.052;6.982;2023-05-10T08:21:02;4.33;;;1.90;;
16242;SDS011;11719;51.052;6.982;2023-05-10T08:23:29;4.47;;;2.27;;
16242;SDS011;11719;51.052;6.982;2023-05-10T08:25:54;3.63;;;2.10;;
16242;SDS011;11719;51.052;6.982;2023-05-10T08:28:20;4.87;;;2.70;;
16242;SDS011;11719;51.052;6.982;2023-05-10T08:30:46;5.53;;;2.97;;
16242;SDS011;11719;51.052;6.982;2023-05-10T08:33:11;5.57;;;3.00;;
16242;SDS011;11719;51.052;6.982;2023-05-10T08:35:37;4.47;;;2.27;;
16242;SDS011;11719;51.052;6.982;2023-05-10T08:38:03;5.20;;;2.03;;
16242;SDS011;11719;51.052;6.982;2023-05-10T08:40:29;6.80;;;3.20;;
16242;SDS011;11719;51.052;6.982;2023-05-10T08:45:32;5.10;;;2.73;;
16242;SDS011;11719;51.052;6.982;2023-05-10T08:48:02;8.23;;;2.47;;
16242;SDS011;11719;51.052;6.982;2023-05-10T08:50:31;5.07;;;2.67;;
16242;SDS011;11719;51.052;6.982;2023-05-10T08:52:57;6.37;;;2.90;;
16242;SDS011;11719;51.052;6.982;2023-05-10T08:55:30;7.03;;;3.17;;
16242;SDS011;11719;51.052;6.982;2023-05-10T08:57:58;7.53;;;2.97;;
16242;SDS011;11719;51.052;6.982;2023-05-10T09:00:25;4.13;;;2.40;;
16242;SDS011;11719;51.052;6.982;2023-05-10T09:02:51;4.17;;;2.00;;
16242;SDS011;11719;51.052;6.982;2023-05-10T09:05:17;6.53;;;2.50;;
16242;SDS011;11719;51.052;6.982;2023-05-10T09:07:43;7.10;;;3.30;;
16242;SDS011;11719;51.052;6.982;2023-05-10T09:10:09;6.37;;;2.50;;
16242;SDS011;11719;51.052;6.982;2023-05-10T09:12:36;6.77;;;2.73;;
16242;SDS011;11719;51.052;6.982;2023-05-10T09:15:03;8.63;;;3.60;;
16242;SDS011;11719;51.052;6.982;2023-05-10T09:17:30;5.03;;;2.80;;
16242;SDS011;11719;51.052;6.982;2023-05-10T09:20:00;9.60;;;4.30;;
16242;SDS011;11719;51.052;6.982;2023-05-10T09:22:27;5.23;;;2.33;;
16242;SDS011;11719;51.052;6.982;2023-05-10T09:25:03;6.97;;;3.57;;
16242;SDS011;11719;51.052;6.982;2023-05-10T09:27:34;6.60;;;3.03;;
16242;SDS011;11719;51.052;6.982;2023-05-10T09:30:01;9.43;;;3.27;;
16242;SDS011;11719;51.052;6.982;2023-05-10T09:32:41;7.33;;;3.43;;
16242;SDS011;11719;51.052;6.982;2023-05-10T09:35:11;10.10;;;3.57;;
16242;SDS011;11719;51.052;6.982;2023-05-10T09:37:39;6.87;;;3.70;;
16242;SDS011;11719;51.052;6.982;2023-05-10T09:40:14;8.53;;;3.83;;
16242;SDS011;11719;51.052;6.982;2023-05-10T09:45:25;6.53;;;3.00;;
16242;SDS011;11719;51.052;6.982;2023-05-10T09:47:56;7.83;;;3.97;;
16242;SDS011;11719;51.052;6.982;2023-05-10T09:50:24;7.90;;;3.10;;
16242;SDS011;11719;51.052;6.982;2023-05-10T09:52:54;8.17;;;4.07;;
16242;SDS011;11719;51.052;6.982;2023-05-10T09:58:09;7.00;;;3.40;;
16242;SDS011;11719;51.052;6.982;2023-05-10T10:00:36;9.63;;;4.27;;
16242;SDS011;11719;51.052;6.982;2023-05-10T10:03:04;7.00;;;3.50;;
16242;SDS011;11719;51.052;6.982;2023-05-10T10:05:30;9.30;;;4.10;;
16242;SDS011;11719;51.052;6.982;2023-05-10T10:08:02;10.60;;;3.77;;
16242;SDS011;11719;51.052;6.982;2023-05-10T10:10:29;8.63;;;4.10;;
16242;SDS011;11719;51.052;6.982;2023-05-10T10:12:57;7.70;;;3.63;;
16242;SDS011;11719;51.052;6.982;2023-05-10T10:15:24;9.13;;;3.70;;
16242;SDS011;11719;51.052;6.982;2023-05-10T10:17:51;7.27;;;3.50;;
16242;SDS011;11719;51.052;6.982;2023-05-10T10:20:19;8.53;;;3.53;;
16242;SDS011;11719;51.052;6.982;2023-05-10T10:22:47;8.37;;;3.50;;
16242;SDS011;11719;51.052;6.982;2023-05-10T10:25:14;7.70;;;3.30;;
16242;SDS011;11719;51.052;6.982;2023-05-10T10:27:47;9.13;;;3.77;;
16242;SDS011;11719;51.052;6.982;2023-05-10T10:35:52;7.10;;;3.47;;
16242;SDS011;11719;51.052;6.982;2023-05-10T10:38:18;10.43;;;3.80;;
16242;SDS011;11719;51.052;6.982;2023-05-10T10:40:44;6.70;;;3.17;;
16242;SDS011;11719;51.052;6.982;2023-05-10T10:43:23;9.07;;;3.70;;
16242;SDS011;11719;51.052;6.982;2023-05-10T10:48:47;9.23;;;3.87;;
16242;SDS011;11719;51.052;6.982;2023-05-10T10:51:17;8.07;;;4.00;;
16242;SDS011;11719;51.052;6.982;2023-05-10T10:53:43;6.23;;;3.27;;
16242;SDS011;11719;51.052;6.982;2023-05-10T10:56:10;5.63;;;3.43;;
16242;SDS011;11719;51.052;6.982;2023-05-10T10:58:40;14.50;;;3.77;;
16242;SDS011;11719;51.052;6.982;2023-05-10T11:01:13;7.63;;;3.83;;
16242;SDS011;11719;51.052;6.982;2023-05-10T11:06:28;8.43;;;3.80;;
16242;SDS011;11719;51.052;6.982;2023-05-10T11:08:59;8.70;;;3.97;;
16242;SDS011;11719;51.052;6.982;2023-05-10T11:11:55;6.17;;;3.87;;
16242;SDS011;11719;51.052;6.982;2023-05-10T11:14:20;7.90;;;3.77;;
16242;SDS011;11719;51.052;6.982;2023-05-10T11:16:49;6.43;;;2.90;;
16242;SDS011;11719;51.052;6.982;2023-05-10T11:19:16;8.83;;;3.37;;
16242;SDS011;11719;51.052;6.982;2023-05-10T11:24:30;7.03;;;3.03;;
16242;SDS011;11719;51.052;6.982;2023-05-10T11:26:56;6.87;;;3.43;;
16242;SDS011;11719;51.052;6.982;2023-05-10T11:29:22;7.27;;;3.60;;
16242;SDS011;11719;51.052;6.982;2023-05-10T11:31:48;9.67;;;3.13;;
16242;SDS011;11719;51.052;6.982;2023-05-10T11:36:59;6.53;;;2.43;;
16242;SDS011;11719;51.052;6.982;2023-05-10T11:39:26;4.63;;;2.47;;
16242;SDS011;11719;51.052;6.982;2023-05-10T11:41:54;5.77;;;2.53;;
16242;SDS011;11719;51.052;6.982;2023-05-10T11:44:20;3.73;;;2.30;;
16242;SDS011;11719;51.052;6.982;2023-05-10T11:46:46;4.20;;;2.23;;
16242;SDS011;11719;51.052;6.982;2023-05-10T11:49:13;4.83;;;1.87;;
16242;SDS011;11719;51.052;6.982;2023-05-10T11:51:38;4.83;;;2.20;;
16242;SDS011;11719;51.052;6.982;2023-05-10T11:54:08;3.87;;;2.33;;
16242;SDS011;11719;51.052;6.982;2023-05-10T11:56:36;5.27;;;2.40;;
16242;SDS011;11719;51.052;6.982;2023-05-10T11:59:05;4.67;;;1.90;;
16242;SDS011;11719;51.052;6.982;2023-05-10T12:01:32;7.07;;;1.93;;
16242;SDS011;11719;51.052;6.982;2023-05-10T12:03:58;7.60;;;2.20;;
16242;SDS011;11719;51.052;6.982;2023-05-10T12:06:29;5.03;;;2.20;;
16242;SDS011;11719;51.052;6.982;2023-05-10T12:08:57;3.37;;;1.83;;
16242;SDS011;11719;51.052;6.982;2023-05-10T12:11:26;2.63;;;1.80;;
16242;SDS011;11719;51.052;6.982;2023-05-10T12:13:53;3.53;;;1.67;;
16242;SDS011;11719;51.052;6.982;2023-05-10T12:16:25;2.70;;;1.53;;
16242;SDS011;11719;51.052;6.982;2023-05-10T12:18:55;3.67;;;1.47;;
16242;SDS011;11719;51.052;6.982;2023-05-10T12:21:23;2.17;;;1.60;;
16242;SDS011;11719;51.052;6.982;2023-05-10T12:23:51;4.17;;;1.93;;
16242;SDS011;11719;51.052;6.982;2023-05-10T12:26:21;3.63;;;2.10;;
16242;SDS011;11719;51.052;6.982;2023-05-10T12:28:48;3.90;;;1.77;;
16242;SDS011;11719;51.052;6.982;2023-05-10T12:31:13;3.20;;;1.50;;
16242;SDS011;11719;51.052;6.982;2023-05-10T12:33:40;2.80;;;1.43;;
16242;SDS011;11719;51.052;6.982;2023-05-10T12:36:08;6.30;;;1.60;;
16242;SDS011;11719;51.052;6.982;2023-05-10T12:38:36;3.10;;;1.37;;
16242;SDS011;11719;51.052;6.982;2023-05-10T12:41:14;2.37;;;1.50;;
16242;SDS011;11719;51.052;6.982;2023-05-10T12:43:42;2.20;;;0.90;;
16242;SDS011;11719;51.052;6.982;2023-05-10T12:46:11;4.23;;;1.67;;
16242;SDS011;11719;51.052;6.982;2023-05-10T12:48:43;2.47;;;1.40;;
16242;SDS011;11719;51.052;6.982;2023-05-10T12:51:10;2.57;;;1.03;;
16242;SDS011;11719;51.052;6.982;2023-05-10T12:53:42;2.33;;;1.20;;
16242;SDS011;11719;51.052;6.982;2023-05-10T12:56:10;1.73;;;1.00;;
16242;SDS011;11719;51.052;6.982;2023-05-10T12:58:36;2.33;;;0.90;;
16242;SDS011;11719;51.052;6.982;2023-05-10T13:01:04;1.77;;;1.00;;
16242;SDS011;11719;51.052;6.982;2023-05-10T13:03:30;1.20;;;0.73;;
16242;SDS011;11719;51.052;6.982;2023-05-10T13:05:56;3.50;;;1.20;;
16242;SDS011;11719;51.052;6.982;2023-05-10T13:08:21;2.03;;;1.07;;
16242;SDS011;11719;51.052;6.982;2023-05-10T13:10:47;1.83;;;0.93;;
16242;SDS011;11719;51.052;6.982;2023-05-10T13:13:13;1.30;;;0.90;;
16242;SDS011;11719;51.052;6.982;2023-05-10T13:15:40;2.00;;;1.30;;
16242;SDS011;11719;51.052;6.982;2023-05-10T13:18:06;1.67;;;1.00;;
16242;SDS011;11719;51.052;6.982;2023-05-10T13:20:31;2.10;;;1.30;;
16242;SDS011;11719;51.052;6.982;2023-05-10T13:22:57;1.97;;;1.00;;
16242;SDS011;11719;51.052;6.982;2023-05-10T13:25:23;1.47;;;0.80;;
16242;SDS011;11719;51.052;6.982;2023-05-10T13:27:49;1.20;;;0.80;;
16242;SDS011;11719;51.052;6.982;2023-05-10T13:30:14;3.13;;;1.40;;
16242;SDS011;11719;51.052;6.982;2023-05-10T13:32:40;2.10;;;0.97;;
16242;SDS011;11719;51.052;6.982;2023-05-10T13:35:06;1.67;;;0.77;;
16242;SDS011;11719;51.052;6.982;2023-05-10T13:37:33;1.60;;;0.80;;
16242;SDS011;11719;51.052;6.982;2023-05-10T13:40:02;1.13;;;0.60;;
16242;SDS011;11719;51.052;6.982;2023-05-10T13:42:29;1.80;;;0.90;;
16242;SDS011;11719;51.052;6.982;2023-05-10T13:44:56;1.07;;;0.60;;
16242;SDS011;11719;51.052;6.982;2023-05-10T13:47:22;1.17;;;0.80;;
16242;SDS011;11719;51.052;6.982;2023-05-10T13:49:48;2.10;;;1.20;;
16242;SDS011;11719;51.052;6.982;2023-05-10T13:52:13;1.03;;;0.70;;
16242;SDS011;11719;51.052;6.982;2023-05-10T13:54:39;1.10;;;0.90;;
16242;SDS011;11719;51.052;6.982;2023-05-10T13:57:05;1.33;;;0.77;;
16242;SDS011;11719;51.052;6.982;2023-05-10T13:59:31;5.17;;;2.30;;
16242;SDS011;11719;51.052;6.982;2023-05-10T14:01:58;4.17;;;2.23;;
16242;SDS011;11719;51.052;6.982;2023-05-10T14:04:24;3.90;;;1.77;;
16242;SDS011;11719;51.052;6.982;2023-05-10T14:06:50;1.43;;;1.13;;
16242;SDS011;11719;51.052;6.982;2023-05-10T14:09:17;1.27;;;0.77;;
16242;SDS011;11719;51.052;6.982;2023-05-10T14:11:43;3.13;;;1.80;;
16242;SDS011;11719;51.052;6.982;2023-05-10T14:14:10;1.77;;;0.80;;
16242;SDS011;11719;51.052;6.982;2023-05-10T14:16:35;3.57;;;1.87;;
16242;SDS011;11719;51.052;6.982;2023-05-10T14:19:01;4.17;;;2.73;;
16242;SDS011;11719;51.052;6.982;2023-05-10T14:21:27;6.40;;;3.03;;
16242;SDS011;11719;51.052;6.982;2023-05-10T14:23:55;8.87;;;3.23;;
16242;SDS011;11719;51.052;6.982;2023-05-10T14:26:21;1.47;;;1.17;;
16242;SDS011;11719;51.052;6.982;2023-05-10T14:28:47;5.50;;;2.60;;
16242;SDS011;11719;51.052;6.982;2023-05-10T14:31:13;1.90;;;1.30;;
16242;SDS011;11719;51.052;6.982;2023-05-10T14:33:39;5.73;;;2.97;;
16242;SDS011;11719;51.052;6.982;2023-05-10T14:36:06;4.23;;;2.53;;
16242;SDS011;11719;51.052;6.982;2023-05-10T14:38:32;1.57;;;1.27;;
16242;SDS011;11719;51.052;6.982;2023-05-10T14:40:58;5.00;;;2.37;;
16242;SDS011;11719;51.052;6.982;2023-05-10T14:43:23;3.90;;;2.20;;
16242;SDS011;11719;51.052;6.982;2023-05-10T14:45:49;2.50;;;1.53;;
16242;SDS011;11719;51.052;6.982;2023-05-10T14:48:15;7.97;;;2.70;;
16242;SDS011;11719;51.052;6.982;2023-05-10T14:50:42;5.00;;;2.93;;
16242;SDS011;11719;51.052;6.982;2023-05-10T14:53:09;5.43;;;2.60;;
16242;SDS011;11719;51.052;6.982;2023-05-10T14:55:34;4.37;;;2.63;;
16242;SDS011;11719;51.052;6.982;2023-05-10T14:58:01;5.10;;;2.63;;
16242;SDS011;11719;51.052;6.982;2023-05-10T15:00:28;5.50;;;2.53;;
16242;SDS011;11719;51.052;6.982;2023-05-10T15:02:55;1.50;;;1.03;;
16242;SDS011;11719;51.052;6.982;2023-05-10T15:05:21;4.83;;;2.50;;
16242;SDS011;11719;51.052;6.982;2023-05-10T15:07:47;5.87;;;2.40;;
16242;SDS011;11719;51.052;6.982;2023-05-10T15:10:13;3.87;;;1.73;;
16242;SDS011;11719;51.052;6.982;2023-05-10T15:12:39;2.53;;;1.47;;
16242;SDS011;11719;51.052;6.982;2023-05-10T15:15:05;5.73;;;2.00;;
16242;SDS011;11719;51.052;6.982;2023-05-10T15:17:32;4.87;;;2.13;;
16242;SDS011;11719;51.052;6.982;2023-05-10T15:19:58;2.87;;;1.73;;
16242;SDS011;11719;51.052;6.982;2023-05-10T15:22:24;3.60;;;1.63;;
16242;SDS011;11719;51.052;6.982;2023-05-10T15:24:50;5.70;;;1.70;;
16242;SDS011;11719;51.052;6.982;2023-05-10T15:27:16;2.13;;;1.40;;
16242;SDS011;11719;51.052;6.982;2023-05-10T15:29:42;2.90;;;1.67;;
16242;SDS011;11719;51.052;6.982;2023-05-10T15:32:07;2.23;;;1.00;;